Time,TemperatureF,DewpointF,PressureIn,WindDirection,WindDirectionDegrees,WindSpeedMPH,WindSpeedGustMPH,Humidity,HourlyPrecipIn,Conditions,Clouds,dailyrainin,SoftwareType,DateUTC
2015-09-03 00:11:00,72.1,71.5,30.01,NNW,337,2.2,-999.0,98,-99.99,,,0.00,Acu-Link.com,2015-09-03 04:11:00,
2015-09-03 00:26:00,71.6,71.0,30.00,WNW,292,0.0,-999.0,98,-99.99,,,0.00,Acu-Link.com,2015-09-03 04:26:00,
2015-09-03 00:41:00,71.4,70.8,29.98,ESE,112,0.0,-999.0,98,-99.99,,,0.00,Acu-Link.com,2015-09-03 04:41:00,
2015-09-03 00:57:00,71.2,70.6,29.98,ESE,112,0.0,-999.0,98,-99.99,,,0.00,Acu-Link.com,2015-09-03 04:57:00,
2015-09-03 01:12:00,71.2,70.6,29.98,WSW,247,0.0,-999.0,98,-99.99,,,0.00,Acu-Link.com,2015-09-03 05:12:00,
2015-09-03 01:27:00,71.2,70.6,29.97,WNW,292,0.0,-999.0,98,-99.99,,,0.00,Acu-Link.com,2015-09-03 05:27:00,
2015-09-03 01:42:00,70.9,70.3,29.97,ESE,112,0.0,-999.0,98,-99.99,,,0.00,Acu-Link.com,2015-09-03 05:42:00,
2015-09-03 01:57:00,70.3,69.7,29.96,ESE,112,0.0,-999.0,98,-99.99,,,0.00,Acu-Link.com,2015-09-03 05:57:00,
2015-09-03 02:12:00,70.2,69.6,29.96,ESE,112,0.0,-999.0,98,-99.99,,,0.00,Acu-Link.com,2015-09-03 06:12:00,
2015-09-03 02:27:00,70.2,69.6,29.96,SSW,202,0.0,-999.0,98,-99.99,,,0.00,Acu-Link.com,2015-09-03 06:27:00,
2015-09-03 02:43:00,70.0,69.4,29.96,WNW,292,0.0,-999.0,98,-99.99,,,0.00,Acu-Link.com,2015-09-03 06:43:00,
2015-09-03 02:58:00,69.8,69.2,29.95,WNW,292,0.0,-999.0,98,-99.99,,,0.00,Acu-Link.com,2015-09-03 06:58:00,
2015-09-03 03:13:00,69.4,68.8,29.94,WNW,292,0.0,-999.0,98,-99.99,,,0.00,Acu-Link.com,2015-09-03 07:13:00,
2015-09-03 03:28:00,69.3,68.7,29.94,WNW,292,0.0,-999.0,98,-99.99,,,0.00,Acu-Link.com,2015-09-03 07:28:00,
2015-09-03 03:44:00,69.1,68.5,29.94,WNW,292,0.0,-999.0,98,-99.99,,,0.00,Acu-Link.com,2015-09-03 07:44:00,
2015-09-03 03:59:00,69.1,68.5,29.94,WNW,292,0.0,-999.0,98,-99.99,,,0.00,Acu-Link.com,2015-09-03 07:59:00,
2015-09-03 04:14:00,68.5,67.9,29.94,NW,315,0.0,-999.0,98,-99.99,,,0.00,Acu-Link.com,2015-09-03 08:14:00,
2015-09-03 04:30:00,68.4,67.8,29.94,NW,315,0.0,-999.0,98,-99.99,,,0.00,Acu-Link.com,2015-09-03 08:30:00,
2015-09-03 04:45:00,68.2,67.6,29.94,NW,315,0.0,-999.0,98,-99.99,,,0.00,Acu-Link.com,2015-09-03 08:45:00,
2015-09-03 05:00:00,68.4,67.8,29.94,WNW,292,0.0,-999.0,98,-99.99,,,0.00,Acu-Link.com,2015-09-03 09:00:00,
2015-09-03 05:15:00,68.7,68.1,29.94,WNW,292,0.0,-999.0,98,-99.99,,,0.00,Acu-Link.com,2015-09-03 09:15:00,
2015-09-03 05:31:00,68.5,67.9,29.94,WNW,292,0.0,-999.0,98,-99.99,,,0.00,Acu-Link.com,2015-09-03 09:31:00,
2015-09-03 05:46:00,68.7,68.1,29.93,WNW,292,0.0,-999.0,98,-99.99,,,0.00,Acu-Link.com,2015-09-03 09:46:00,
2015-09-03 06:01:00,68.5,67.9,29.94,WNW,292,0.0,-999.0,98,-99.99,,,0.00,Acu-Link.com,2015-09-03 10:01:00,
2015-09-03 06:17:00,68.2,67.6,29.94,WNW,292,0.0,-999.0,98,-99.99,,,0.00,Acu-Link.com,2015-09-03 10:17:00,
2015-09-03 06:32:00,67.8,67.2,29.95,WNW,292,0.0,-999.0,98,-99.99,,,0.00,Acu-Link.com,2015-09-03 10:32:00,
2015-09-03 06:47:00,67.5,66.9,29.95,WNW,292,0.0,-999.0,98,-99.99,,,0.00,Acu-Link.com,2015-09-03 10:47:00,
2015-09-03 07:02:00,67.5,66.9,29.95,WNW,292,0.0,-999.0,98,-99.99,,,0.00,Acu-Link.com,2015-09-03 11:02:00,
2015-09-03 07:18:00,67.5,66.9,29.96,WNW,292,0.0,-999.0,98,-99.99,,,0.00,Acu-Link.com,2015-09-03 11:18:00,
2015-09-03 07:33:00,67.5,66.9,29.95,WNW,292,0.0,-999.0,98,-99.99,,,0.00,Acu-Link.com,2015-09-03 11:33:00,
2015-09-03 07:48:00,67.8,67.2,29.96,WNW,292,0.0,-999.0,98,-99.99,,,0.00,Acu-Link.com,2015-09-03 11:48:00,
2015-09-03 08:03:00,68.2,67.6,29.96,WNW,292,0.0,-999.0,98,-99.99,,,0.00,Acu-Link.com,2015-09-03 12:03:00,
2015-09-03 08:19:00,68.5,67.9,29.96,WNW,292,0.0,-999.0,98,-99.99,,,0.00,Acu-Link.com,2015-09-03 12:19:00,
2015-09-03 08:34:00,69.4,68.8,29.96,WNW,292,0.0,-999.0,98,-99.99,,,0.00,Acu-Link.com,2015-09-03 12:34:00,
2015-09-03 08:49:00,70.0,69.4,29.96,WNW,292,0.0,-999.0,98,-99.99,,,0.00,Acu-Link.com,2015-09-03 12:49:00,
2015-09-03 09:04:00,71.4,70.8,29.96,WNW,292,0.0,-999.0,98,-99.99,,,0.00,Acu-Link.com,2015-09-03 13:04:00,
2015-09-03 09:20:00,72.5,71.9,29.96,WNW,292,0.0,-999.0,98,-99.99,,,0.00,Acu-Link.com,2015-09-03 13:20:00,
2015-09-03 09:35:00,74.3,73.7,29.96,WNW,292,0.0,-999.0,98,-99.99,,,0.00,Acu-Link.com,2015-09-03 13:35:00,
2015-09-03 09:50:00,77.0,76.4,29.97,NNE,22,0.0,-999.0,98,-99.99,,,0.00,Acu-Link.com,2015-09-03 13:50:00,
2015-09-03 10:05:00,77.5,76.6,29.96,ENE,67,0.0,-999.0,97,-99.99,,,0.00,Acu-Link.com,2015-09-03 14:05:00,
2015-09-03 10:21:00,77.5,76.6,29.97,NW,315,0.0,-999.0,97,-99.99,,,0.00,Acu-Link.com,2015-09-03 14:21:00,
2015-09-03 10:36:00,79.0,76.8,29.97,NW,315,0.0,-999.0,93,-99.99,,,0.00,Acu-Link.com,2015-09-03 14:36:00,
2015-09-03 10:51:00,81.0,78.1,29.97,North,0,0.0,-999.0,91,-99.99,,,0.00,Acu-Link.com,2015-09-03 14:51:00,
2015-09-03 11:11:00,79.2,77.0,29.98,NW,315,0.0,-999.0,93,-99.99,,,0.00,Acu-Link.com,2015-09-03 15:11:00,
2015-09-03 11:26:00,80.1,76.9,29.97,WNW,292,0.0,-999.0,90,-99.99,,,0.00,Acu-Link.com,2015-09-03 15:26:00,
2015-09-03 11:41:00,80.4,77.5,29.97,WNW,292,1.7,-999.0,91,-99.99,,,0.00,Acu-Link.com,2015-09-03 15:41:00,
2015-09-03 11:56:00,80.8,76.9,29.97,WNW,292,0.0,-999.0,88,-99.99,,,0.00,Acu-Link.com,2015-09-03 15:56:00,
2015-09-03 12:11:00,81.3,77.4,29.97,WNW,292,0.0,-999.0,88,-99.99,,,0.00,Acu-Link.com,2015-09-03 16:11:00,
2015-09-03 12:28:00,83.5,78.1,29.96,NNW,337,0.0,-999.0,84,-99.99,,,0.00,Acu-Link.com,2015-09-03 16:28:00,
2015-09-03 12:43:00,85.8,78.9,29.96,NNW,337,0.0,-999.0,80,-99.99,,,0.00,Acu-Link.com,2015-09-03 16:43:00,
2015-09-03 12:58:00,85.6,77.9,29.95,NW,315,1.7,-999.0,78,-99.99,,,0.00,Acu-Link.com,2015-09-03 16:58:00,